Time;durP1;ratioP1;P1;durP2;ratioP2;P2;SDS_P1;SDS_P2;PMS_P1;PMS_P2;Temp;Humidity;BMP_temperature;BMP_pressure;BME280_temperature;BME280_humidity;BME280_pressure;Samples;Min_cycle;Max_cycle;Signal;HPM_P1;HPM_P2
2022/08/02 08:24:07;;;;;;;0.10;0.10;;;22.90;47.70;;;25.15;39.15;101708.16;2129684;27;20631;-67
2022/08/02 08:25:11;;;;;;;0.10;0.10;;;22.80;49.00;;;25.32;38.05;101723.66;2115097;28;20044;-67
2022/08/02 08:26:16;;;;;;;0.10;0.10;;;22.90;48.00;;;25.44;37.98;101706.50;2121211;28;20043;-68
2022/08/02 08:27:21;;;;;;;0.10;0.10;;;22.90;47.80;;;25.74;37.99;101714.66;2119570;28;20108;-68
2022/08/02 08:28:25;;;;;;;0.10;0.10;;;23.00;48.10;;;26.15;36.64;101724.19;2114689;28;20096;-68
2022/08/02 08:29:29;;;;;;;0.10;0.10;;;23.10;47.80;;;26.45;36.16;101725.94;2121136;28;20051;-67
2022/08/02 08:30:33;;;;;;;0.10;0.10;;;23.30;47.60;;;26.61;35.38;101714.91;2112445;28;20592;-68
2022/08/02 08:31:37;;;;;;;0.10;0.10;;;23.30;47.10;;;26.67;35.10;101727.09;2112321;28;20419;-68
2022/08/02 08:32:41;;;;;;;0.10;0.10;;;23.40;46.80;;;26.74;35.02;101718.63;2112486;28;20488;-68
2022/08/02 08:33:46;;;;;;;0.10;0.10;;;23.50;46.70;;;26.82;35.37;101716.47;2099898;28;20213;-68
2022/08/02 08:34:50;;;;;;;0.00;0.00;;;23.50;46.70;;;26.98;35.87;101711.75;2106084;28;20195;-68
2022/08/02 08:35:55;;;;;;;0.05;0.05;;;23.60;47.10;;;27.34;35.45;101708.91;2112259;28;20452;-68
2022/08/02 08:36:58;;;;;;;0.10;0.10;;;23.70;47.50;;;27.73;34.65;101717.03;2112277;28;20051;-68
2022/08/02 08:38:02;;;;;;;0.15;0.15;;;23.90;47.50;;;28.07;33.90;101711.00;2117184;28;20051;-68
2022/08/02 08:39:13;;;;;;;0.00;0.00;;;24.00;47.00;;;28.41;33.58;101708.41;2112219;28;20112;-69
2022/08/02 08:40:18;;;;;;;0.00;0.00;;;24.10;46.90;;;28.60;33.04;101707.47;2112570;28;20450;-68
2022/08/02 08:41:23;;;;;;;0.15;0.15;;;24.20;46.70;;;28.74;32.98;101701.47;2102877;28;20582;-67
2022/08/02 08:42:26;;;;;;;0.10;0.10;;;24.40;46.50;;;28.86;32.73;101703.50;2102917;28;20052;-68
2022/08/02 08:43:31;;;;;;;0.00;0.00;;;24.40;45.90;;;28.93;32.08;101714.38;2103835;28;20060;-68
2022/08/02 08:44:35;;;;;;;0.10;0.10;;;24.50;45.40;;;28.81;32.05;101696.47;2118933;28;20410;-68
2022/08/02 08:45:40;;;;;;;0.10;0.10;;;24.50;44.90;;;28.68;32.20;101711.59;2118535;28;20453;-68
2022/08/02 08:46:48;;;;;;;0.10;0.10;;;24.50;44.90;;;28.61;32.08;101701.47;2112265;28;20485;-69
2022/08/02 08:47:59;;;;;;;0.10;0.10;;;24.60;44.60;;;28.60;32.15;101693.56;2117791;28;20070;-67
2022/08/02 08:49:09;;;;;;;0.10;0.10;;;24.60;44.70;;;28.64;32.10;101694.22;2120167;28;20082;-68
2022/08/02 08:50:18;;;;;;;0.10;0.10;;;24.50;44.90;;;28.73;32.64;101684.00;2120691;28;20051;-67
2022/08/02 08:51:35;;;;;;;0.08;0.08;;;24.60;44.90;;;29.08;32.08;101691.25;2120412;28;20508;-67
2022/08/02 08:52:48;;;;;;;0.10;0.10;;;24.80;44.90;;;29.34;31.57;101697.56;2116094;28;20623;-68
2022/08/02 08:53:56;;;;;;;0.10;0.10;;;25.00;44.00;;;29.42;31.02;101673.84;2112372;28;20093;-68
2022/08/02 08:55:03;;;;;;;0.10;0.10;;;25.00;43.70;;;29.64;31.47;101685.81;2107675;28;20073;-68
2022/08/02 08:56:09;;;;;;;0.10;0.10;;;25.20;44.40;;;29.89;30.32;101679.38;2112351;28;20051;-67
2022/08/02 08:57:21;;;;;;;0.10;0.10;;;25.30;43.80;;;30.09;30.62;101680.59;2112538;28;20845;-68
2022/08/02 08:58:26;;;;;;;0.10;0.10;;;25.50;43.50;;;30.25;30.25;101686.00;2107908;28;20074;-68
2022/08/02 08:59:30;;;;;;;0.15;0.15;;;25.50;43.00;;;30.32;30.22;101694.09;2112273;28;20044;-68
2022/08/02 09:00:41;;;;;;;0.10;0.10;;;25.70;42.80;;;30.35;29.08;101692.41;2104142;28;20052;-68
2022/08/02 09:01:52;;;;;;;0.10;0.10;;;25.80;42.00;;;30.21;28.79;101687.34;2107228;28;20047;-68
2022/08/02 11:23:22;;;;;;;0.10;0.10;;;26.60;52.70;;;27.47;44.38;101616.25;1809190;27;8204321;-67
2022/08/02 11:25:33;;;;;;;0.10;0.10;;;26.60;52.00;;;27.62;45.22;101595.22;2079307;28;20809;-68
2022/08/02 11:26:59;;;;;;;0.10;0.10;;;26.60;53.50;;;27.74;45.34;101600.03;2092885;28;20052;-68
2022/08/02 11:28:12;;;;;;;0.10;0.10;;;26.60;52.50;;;27.86;45.01;101604.84;2094584;28;20060;-68
2022/08/02 11:29:14;;;;;;;0.05;0.05;;;26.60;52.30;;;27.95;45.14;101609.00;2100658;28;22011;-69
2022/08/02 11:30:19;;;;;;;0.08;0.08;;;26.60;52.50;;;28.07;44.92;101605.47;2093743;28;20052;-68
2022/08/02 11:31:36;;;;;;;0.00;0.00;;;26.60;52.60;;;28.32;44.68;101600.72;2089417;28;20049;-68
2022/08/02 11:32:41;;;;;;;0.10;0.10;;;26.80;52.90;;;28.59;44.48;101605.88;2094632;28;20040;-67
2022/08/02 11:33:43;;;;;;;0.10;0.10;;;26.90;52.90;;;28.78;44.21;101602.09;2094633;28;20419;-68
2022/08/02 11:34:51;;;;;;;0.10;0.10;;;27.00;52.90;;;28.91;43.62;101600.81;2095272;28;20049;-68
2022/08/02 11:36:02;;;;;;;0.10;0.10;;;27.10;52.70;;;29.04;44.04;101607.16;2095181;28;20127;-68
2022/08/02 11:37:09;;;;;;;0.10;0.10;;;27.10;52.50;;;29.16;43.36;101597.25;2090557;28;20053;-68
2022/08/02 11:38:16;;;;;;;0.10;0.10;;;27.20;52.80;;;29.21;43.44;101589.09;2087985;28;20136;-69
2022/08/02 11:39:22;;;;;;;0.10;0.10;;;27.30;53.00;;;29.41;44.27;101593.59;2095451;28;20045;-67
2022/08/02 11:40:37;;;;;;;0.10;0.10;;;27.40;53.30;;;29.60;43.24;101598.06;2099223;28;20063;-67
2022/08/02 11:41:40;;;;;;;0.10;0.10;;;27.50;53.10;;;29.71;43.21;101595.72;2101892;28;20048;-68
2022/08/02 11:42:50;;;;;;;0.10;0.10;;;27.60;53.30;;;29.78;43.51;101604.56;2095340;28;20048;-68
2022/08/02 11:43:54;;;;;;;0.10;0.10;;;27.60;53.00;;;29.78;43.32;101599.00;2094888;28;20135;-68
2022/08/02 11:44:57;;;;;;;0.10;0.10;;;27.60;52.80;;;29.76;42.96;101601.47;2095412;28;20499;-69
2022/08/02 11:46:02;;;;;;;0.10;0.10;;;27.70;52.70;;;29.71;42.58;101599.28;2095187;28;20522;-68
2022/08/02 11:47:07;;;;;;;0.10;0.10;;;27.60;52.20;;;29.63;42.77;101603.50;2094644;28;20600;-67
2022/08/02 11:48:09;;;;;;;0.00;0.00;;;27.50;52.40;;;29.55;42.65;101598.66;2095619;28;20554;-68
2022/08/02 11:49:15;;;;;;;0.10;0.10;;;27.40;52.40;;;29.49;43.42;101601.25;2094500;28;20056;-69
2022/08/02 11:50:23;;;;;;;0.10;0.10;;;27.40;52.50;;;29.44;43.54;101596.25;2095025;28;20131;-69
2022/08/02 11:51:32;;;;;;;0.10;0.10;;;27.30;52.70;;;29.45;43.98;101592.22;2095396;28;20613;-70
2022/08/02 11:52:37;;;;;;;0.10;0.10;;;27.30;53.10;;;29.48;43.52;101596.13;2094388;28;20044;-71
2022/08/02 11:53:48;;;;;;;0.10;0.10;;;27.30;52.90;;;29.41;43.33;101605.50;2095284;28;20415;-69
2022/08/02 11:54:51;;;;;;;0.10;0.10;;;27.10;52.10;;;29.28;42.96;101604.78;2103796;28;20384;-69
2022/08/02 11:55:57;;;;;;;0.10;0.10;;;27.00;52.60;;;29.13;43.15;101609.25;2102597;28;20181;-69
2022/08/02 11:57:12;;;;;;;0.00;0.00;;;26.90;52.30;;;29.01;43.54;101610.81;2096738;28;20191;-69
2022/08/02 11:58:22;;;;;;;0.10;0.10;;;26.80;52.90;;;28.91;43.33;101608.38;2101925;28;20098;-69
2022/08/02 11:59:25;;;;;;;0.10;0.10;;;26.70;53.00;;;28.81;43.70;101610.28;2098032;28;20055;-70
2022/08/02 12:00:28;;;;;;;0.10;0.10;;;26.60;53.20;;;28.71;43.68;101610.63;2094978;28;20052;-68
2022/08/02 12:01:36;;;;;;;0.00;0.00;;;26.40;53.10;;;28.57;43.75;101609.09;2111907;28;20059;-70
2022/08/02 12:02:48;;;;;;;0.10;0.10;;;26.30;53.30;;;28.52;44.07;101603.31;2106093;28;20060;-69
2022/08/02 12:03:51;;;;;;;0.00;0.00;;;26.40;54.00;;;28.50;44.36;101606.53;2093777;28;20060;-69
2022/08/02 12:04:57;;;;;;;0.00;0.00;;;26.30;54.20;;;28.50;44.43;101609.31;2094646;28;20475;-69
2022/08/02 12:06:00;;;;;;;0.10;0.10;;;26.40;54.20;;;28.45;44.48;101603.50;2102871;28;20056;-70
2022/08/02 12:07:14;;;;;;;0.03;0.03;;;26.30;54.10;;;28.37;44.44;101596.63;2102848;28;20056;-70
2022/08/02 12:08:20;;;;;;;0.10;0.10;;;26.30;54.10;;;28.27;44.72;101598.50;2083229;28;20447;-70
2022/08/02 12:09:31;;;;;;;0.10;0.10;;;26.20;54.10;;;28.25;44.83;101591.81;2094423;28;20049;-70
2022/08/02 12:10:33;;;;;;;0.10;0.10;;;26.30;54.30;;;28.25;44.90;101583.50;2098001;28;20055;-70
2022/08/02 12:11:37;;;;;;;0.10;0.10;;;26.30;54.50;;;28.25;45.18;101586.28;2099659;28;20045;-70
2022/08/02 12:12:49;;;;;;;0.10;0.10;;;26.30;54.50;;;28.23;45.45;101580.38;2103142;28;20048;-70
2022/08/02 12:13:53;;;;;;;0.10;0.10;;;26.40;54.80;;;28.25;45.70;101589.84;2086047;28;20134;-70
2022/08/02 12:14:59;;;;;;;0.10;0.10;;;26.40;54.80;;;28.19;45.13;101585.28;2098374;28;20123;-70
2022/08/02 12:20:11;;;;;;;0.10;0.10;;;26.20;54.30;;;28.06;45.42;101601.13;2073518;28;20075;-70
2022/08/02 12:21:24;;;;;;;0.00;0.00;;;26.20;54.50;;;27.98;45.70;101594.22;2089823;28;20045;-69
2022/08/02 12:22:28;;;;;;;0.10;0.10;;;26.20;54.50;;;27.92;45.69;101593.22;2081116;28;20513;-70
2022/08/02 12:23:32;;;;;;;0.10;0.10;;;26.20;54.50;;;27.85;45.86;101594.97;2082056;28;20052;-70
2022/08/02 12:24:37;;;;;;;0.10;0.10;;;26.20;54.50;;;27.84;45.84;101598.94;2085967;28;20542;-70
2022/08/02 12:25:41;;;;;;;0.10;0.10;;;26.10;54.40;;;27.81;45.74;101593.50;2081579;28;20116;-70
2022/08/02 12:26:46;;;;;;;0.10;0.10;;;26.10;54.50;;;27.77;46.18;101585.28;2083711;28;20053;-69
2022/08/02 12:27:50;;;;;;;0.10;0.10;;;26.00;54.50;;;27.74;45.77;101591.72;2086620;28;20057;-70
2022/08/02 12:28:58;;;;;;;0.10;0.10;;;26.00;54.60;;;27.69;46.27;101594.22;2082241;28;20524;-70
2022/08/02 12:30:07;;;;;;;0.10;0.10;;;26.00;54.90;;;27.65;46.59;101597.09;2082893;28;20092;-70
2022/08/02 12:31:12;;;;;;;0.10;0.10;;;26.00;55.00;;;27.64;46.50;101583.66;2080082;28;20128;-70
2022/08/02 12:32:24;;;;;;;0.00;0.00;;;26.00;55.20;;;27.60;46.86;101594.09;2083842;28;20492;-71
2022/08/02 12:33:30;;;;;;;0.10;0.10;;;26.00;55.30;;;27.57;46.72;101604.09;2082389;28;20045;-70
2022/08/02 12:34:34;;;;;;;0.10;0.10;;;26.00;55.40;;;27.53;46.69;101595.06;2087119;28;20049;-70
2022/08/02 12:35:37;;;;;;;0.10;0.10;;;25.80;55.40;;;27.50;47.12;101597.94;2064335;28;20517;-71
2022/08/02 12:36:40;;;;;;;0.10;0.10;;;25.90;55.60;;;27.47;47.07;101596.03;2071116;28;20122;-71
2022/08/02 12:37:46;;;;;;;0.10;0.10;;;25.80;55.90;;;27.46;47.12;101594.50;2083881;28;20056;-71
2022/08/02 12:38:52;;;;;;;0.10;0.10;;;25.80;56.00;;;27.46;47.61;101600.81;2071734;28;20056;-71
2022/08/02 12:39:57;;;;;;;0.15;0.15;;;25.80;56.40;;;27.44;47.50;101583.84;2072529;28;20541;-70
2022/08/02 12:41:13;;;;;;;0.10;0.10;;;25.80;56.70;;;27.47;48.09;101594.06;2080974;28;20049;-71
2022/08/02 12:42:48;;;;;;;0.10;0.10;;;25.80;57.30;;;27.61;47.82;101584.53;2073064;28;20259;-70
2022/08/02 12:43:52;;;;;;;0.10;0.10;;;25.90;57.20;;;27.64;47.58;101590.00;2081865;28;20120;-70
2022/08/02 12:44:57;;;;;;;0.10;0.10;;;25.80;57.20;;;27.63;47.59;101588.47;2080637;28;20084;-70
2022/08/02 12:46:01;;;;;;;0.10;0.10;;;25.90;57.00;;;27.57;47.49;101590.22;2079325;28;20057;-69
2022/08/02 12:47:08;;;;;;;0.10;0.10;;;25.90;56.70;;;27.52;47.22;101592.72;2077745;28;20060;-70
2022/08/02 12:48:12;;;;;;;0.10;0.10;;;25.80;56.50;;;27.47;47.79;101590.50;2076020;28;20121;-70
2022/08/02 12:49:16;;;;;;;0.10;0.10;;;25.80;56.70;;;27.41;47.88;101587.50;2073002;28;20134;-70
2022/08/02 12:50:26;;;;;;;0.10;0.10;;;25.80;56.70;;;27.41;48.10;101584.72;2072600;28;20053;-70
2022/08/02 12:51:35;;;;;;;0.13;0.13;;;25.80;57.00;;;27.45;48.23;101602.03;2075978;28;20045;-70
2022/08/02 12:53:08;;;;;;;0.10;0.10;;;25.80;57.20;;;27.44;49.63;101588.59;2081028;28;20053;-70
2022/08/02 12:54:13;;;;;;;0.10;0.10;;;25.80;59.00;;;27.43;50.79;101579.50;2081146;28;20049;-71
2022/08/02 12:55:26;;;;;;;0.10;0.10;;;25.80;60.30;;;27.40;50.32;101574.81;2076725;28;20592;-70
2022/08/02 12:56:49;;;;;;;0.15;0.15;;;25.80;60.10;;;27.41;50.44;101568.06;2077692;28;20083;-70
2022/08/02 12:57:59;;;;;;;0.10;0.10;;;25.70;60.20;;;27.40;50.70;101580.38;2081341;28;20053;-70
2022/08/02 12:59:02;;;;;;;0.17;0.17;;;25.80;60.50;;;27.37;50.35;101577.72;2076540;28;20472;-69
2022/08/02 13:00:08;;;;;;;0.10;0.10;;;25.80;60.30;;;27.36;50.47;101574.16;2072360;28;20058;-69
2022/08/02 13:01:12;;;;;;;0.10;0.10;;;25.70;60.10;;;27.36;50.34;101579.69;2072933;28;20061;-69
2022/08/02 13:02:15;;;;;;;0.10;0.10;;;25.70;59.70;;;27.34;50.25;101570.25;2072674;28;20416;-70
2022/08/02 13:03:20;;;;;;;0.10;0.10;;;25.70;59.60;;;27.29;49.84;101579.88;2072269;28;20050;-70
2022/08/02 13:04:44;;;;;;;0.10;0.10;;;25.70;59.20;;;27.20;50.07;101582.47;2072834;28;20054;-70
2022/08/02 13:05:53;;;;;;;0.00;0.00;;;25.70;59.20;;;27.13;49.61;101570.78;2075627;28;20077;-70
2022/08/02 13:06:58;;;;;;;0.10;0.10;;;25.70;59.10;;;27.18;49.61;101584.13;2073363;28;20417;-70
2022/08/02 13:08:04;;;;;;;0.10;0.10;;;25.50;58.90;;;27.18;49.77;101582.13;2073000;28;20124;-69
2022/08/02 13:09:16;;;;;;;0.10;0.10;;;25.60;59.10;;;27.21;50.28;101575.69;2075748;28;20132;-70
2022/08/02 13:10:22;;;;;;;0.10;0.10;;;25.60;59.50;;;27.23;49.86;101576.03;2079209;28;20054;-71
2022/08/02 13:11:25;;;;;;;0.10;0.10;;;25.60;59.70;;;27.25;49.78;101583.94;2074958;28;20102;-71
2022/08/02 13:12:28;;;;;;;0.10;0.10;;;25.60;59.70;;;27.27;50.32;101581.53;2073397;28;20050;-71
2022/08/02 13:13:32;;;;;;;0.10;0.10;;;25.70;59.90;;;27.29;50.24;101573.56;2076396;28;20060;-71
2022/08/02 13:14:35;;;;;;;0.13;0.13;;;25.60;59.90;;;27.32;50.38;101575.47;2077398;28;20053;-70
2022/08/02 13:15:44;;;;;;;0.10;0.10;;;25.70;60.20;;;27.36;50.28;101576.13;2075074;28;20050;-70
2022/08/02 13:16:52;;;;;;;0.10;0.10;;;25.70;60.30;;;27.36;49.98;101582.47;2074678;28;20053;-70
2022/08/02 13:21:53;;;;;;;0.00;0.00;;;25.60;58.70;;;27.24;49.51;101569.28;1629920;23;20373;-88
2022/08/02 13:23:12;;;;;;;0.00;0.00;;;25.60;58.90;;;27.28;49.13;101575.56;2036580;29;20052;-92
2022/08/02 13:24:24;;;;;;;0.10;0.10;;;25.50;58.90;;;27.25;48.82;101573.63;2029596;29;20569;-92
2022/08/02 13:25:45;;;;;;;0.13;0.13;;;25.50;58.80;;;27.24;49.34;101577.59;2039833;29;20051;-90
2022/08/02 13:26:54;;;;;;;0.10;0.10;;;25.60;58.90;;;27.19;49.14;101575.38;2045253;29;20124;-92
2022/08/02 13:27:57;;;;;;;0.10;0.10;;;25.50;58.70;;;27.21;49.25;101578.47;2036006;29;20040;-88
2022/08/02 13:29:02;;;;;;;0.03;0.03;;;25.60;58.90;;;27.22;49.80;101566.19;2036568;29;20060;-88
2022/08/02 13:30:07;;;;;;;0.10;0.10;;;25.60;59.00;;;27.29;49.56;101571.56;2043247;29;20083;-91
2022/08/02 13:31:10;;;;;;;0.10;0.10;;;25.70;59.10;;;27.33;49.62;101569.47;2045139;29;20052;-91
2022/08/02 13:32:33;;;;;;;0.10;0.10;;;25.70;59.20;;;27.46;49.80;101572.31;2043282;29;20071;-91
2022/08/02 13:33:36;;;;;;;0.10;0.10;;;25.80;59.50;;;27.52;49.40;101565.78;2044750;29;20059;-90
2022/08/02 13:34:39;;;;;;;0.10;0.10;;;25.80;59.20;;;27.55;49.12;101564.13;2044274;29;20051;-90
2022/08/02 13:35:43;;;;;;;0.10;0.10;;;25.80;58.70;;;27.59;49.09;101565.56;2043737;29;20059;-92
2022/08/02 13:36:47;;;;;;;0.10;0.10;;;25.90;58.70;;;27.61;49.08;101565.91;2044617;29;20467;-88
2022/08/02 13:37:52;;;;;;;0.10;0.10;;;26.00;58.70;;;27.63;48.73;101571.81;2026376;29;20056;-93
2022/08/02 13:38:55;;;;;;;0.10;0.10;;;25.90;58.10;;;27.62;48.42;101564.69;2029114;29;20491;-91
2022/08/02 13:39:59;;;;;;;0.10;0.10;;;25.90;57.80;;;27.56;48.50;101560.09;2035359;29;20501;-91
2022/08/02 13:41:22;;;;;;;0.10;0.10;;;25.90;57.70;;;27.55;48.33;101559.34;2038948;29;20055;-91
2022/08/02 13:42:26;;;;;;;0.13;0.13;;;25.90;57.50;;;27.50;48.30;101559.09;2035386;29;20480;-88
2022/08/02 13:43:29;;;;;;;0.10;0.10;;;25.90;57.40;;;27.43;48.59;101551.75;2034030;29;20044;-89
2022/08/02 13:44:52;;;;;;;0.10;0.10;;;25.80;57.60;;;27.42;48.97;101555.75;2043095;29;20055;-88
2022/08/02 13:45:55;;;;;;;0.10;0.10;;;25.80;58.50;;;27.44;49.99;101552.53;2041185;29;20047;-77
2022/08/02 13:46:58;;;;;;;0.10;0.10;;;25.80;59.10;;;27.44;50.22;101553.31;2032988;29;20537;-77
2022/08/02 13:48:01;;;;;;;0.10;0.10;;;25.80;59.40;;;27.44;49.98;101553.31;2042077;29;20079;-76
2022/08/02 13:49:07;;;;;;;0.10;0.10;;;25.80;59.40;;;27.38;49.74;101537.66;2042226;29;20055;-77
2022/08/02 13:50:23;;;;;;;0.10;0.10;;;25.70;59.00;;;27.34;49.65;101543.28;2042883;29;20508;-75
2022/08/02 13:51:30;;;;;;;0.10;0.10;;;25.80;59.10;;;27.36;50.63;101540.06;2033264;29;20060;-77
2022/08/02 13:52:38;;;;;;;0.10;0.10;;;25.80;59.80;;;27.41;50.08;101545.09;2034221;29;20088;-78
2022/08/02 13:53:42;;;;;;;0.10;0.10;;;25.80;59.50;;;27.45;49.59;101532.69;2033752;29;20091;-77
2022/08/02 13:54:45;;;;;;;0.03;0.03;;;25.80;59.20;;;27.49;49.55;101547.25;2041355;29;20103;-77
2022/08/02 13:55:48;;;;;;;0.00;0.00;;;25.90;59.10;;;27.52;49.98;101543.59;2042754;29;20048;-78
2022/08/02 13:56:59;;;;;;;0.10;0.10;;;25.90;59.10;;;27.58;49.30;101547.38;2042049;29;20191;-77
2022/08/02 13:58:04;;;;;;;0.00;0.00;;;25.90;59.00;;;27.61;49.55;101543.72;2034224;29;20052;-77
2022/08/02 13:59:06;;;;;;;0.10;0.10;;;26.00;59.20;;;27.67;49.66;101539.16;2033551;29;20440;-77
2022/08/02 14:00:30;;;;;;;0.00;0.00;;;26.00;59.20;;;27.73;49.17;101554.06;2032827;29;20056;-77
2022/08/02 14:01:38;;;;;;;0.10;0.10;;;26.00;58.50;;;27.73;48.61;101542.19;2034198;29;20056;-77
2022/08/02 14:02:41;;;;;;;0.03;0.03;;;26.00;57.90;;;27.72;48.49;101541.41;2041439;29;20135;-78
2022/08/02 14:03:44;;;;;;;0.03;0.03;;;26.10;57.70;;;27.72;48.13;101541.41;2042573;29;20090;-78
2022/08/02 14:05:09;;;;;;;0.10;0.10;;;26.10;57.40;;;27.70;48.30;101540.31;2033356;29;20579;-78
2022/08/02 14:06:11;;;;;;;0.10;0.10;;;26.00;57.20;;;27.66;48.01;101531.28;2034069;29;20503;-77
2022/08/02 14:07:14;;;;;;;0.10;0.10;;;26.10;57.20;;;27.70;47.85;101534.75;2033326;29;20096;-77
2022/08/02 14:08:21;;;;;;;0.10;0.10;;;26.10;57.10;;;27.69;48.13;101531.19;2034369;29;20054;-78
2022/08/02 14:09:25;;;;;;;0.00;0.00;;;26.10;57.00;;;27.66;47.81;101532.06;2033335;29;20067;-77
2022/08/02 14:10:28;;;;;;;0.00;0.00;;;26.10;56.70;;;27.69;48.09;101535.97;2033660;29;20056;-78
2022/08/02 14:11:33;;;;;;;0.00;0.00;;;26.10;56.50;;;27.68;47.62;101524.09;2034055;29;20108;-78
2022/08/02 14:12:37;;;;;;;0.00;0.00;;;26.10;56.60;;;27.76;47.93;101525.44;2033090;29;20390;-77
2022/08/02 14:13:40;;;;;;;0.10;0.10;;;26.10;56.80;;;27.79;47.55;101530.13;2033882;29;20112;-78
2022/08/02 14:14:43;;;;;;;0.10;0.10;;;26.20;56.50;;;27.80;47.33;101523.34;2025772;29;20048;-78
2022/08/02 14:15:47;;;;;;;0.10;0.10;;;26.10;56.10;;;27.83;47.20;101524.44;2034119;29;20052;-78
2022/08/02 14:17:03;;;;;;;0.10;0.10;;;26.20;55.90;;;27.90;46.96;101523.47;2033541;29;20539;-77
2022/08/02 14:18:46;;;;;;;0.03;0.03;;;26.20;56.10;;;27.97;46.94;101520.50;2039406;29;20052;-77
2022/08/02 14:20:17;;;;;;;0.10;0.10;;;26.20;56.20;;;28.01;46.89;101529.47;2041002;29;20043;-78
2022/08/02 14:21:32;;;;;;;0.10;0.10;;;26.20;55.50;;;28.00;47.18;101525.94;2045268;29;20118;-77
2022/08/02 14:22:50;;;;;;;0.10;0.10;;;26.20;56.00;;;28.04;47.02;101528.59;2033404;29;20122;-78
2022/08/02 14:23:53;;;;;;;0.10;0.10;;;26.30;56.30;;;28.07;47.12;101522.94;2035901;29;20031;-77
2022/08/02 14:24:55;;;;;;;0.00;0.00;;;26.40;56.20;;;28.13;47.01;101526.72;2031685;29;20052;-76
2022/08/02 14:25:59;;;;;;;0.10;0.10;;;26.40;56.00;;;28.15;47.22;101517.94;2033152;29;20044;-76
2022/08/02 14:27:01;;;;;;;0.00;0.00;;;26.50;56.10;;;28.21;47.04;101518.97;2026305;29;20100;-78
2022/08/02 14:28:07;;;;;;;0.10;0.10;;;26.60;56.00;;;28.33;46.93;101529.28;2026916;29;20431;-77
2022/08/02 14:29:10;;;;;;;0.10;0.10;;;26.60;55.80;;;28.46;46.36;101530.06;2027103;29;20061;-77
2022/08/02 14:30:13;;;;;;;0.00;0.00;;;26.70;55.70;;;28.58;46.49;101529.28;2016340;29;20568;-77
2022/08/02 14:31:16;;;;;;;0.10;0.10;;;26.80;55.70;;;28.70;45.62;101531.28;2023617;29;20132;-77
2022/08/02 14:32:19;;;;;;;0.10;0.10;;;26.90;55.00;;;28.75;45.43;101534.25;2025749;29;20584;-78
2022/08/02 14:33:30;;;;;;;0.00;0.00;;;27.00;54.30;;;28.82;45.75;101528.47;2032731;29;20056;-77
2022/08/02 14:34:32;;;;;;;0.10;0.10;;;27.10;54.30;;;28.88;45.10;101525.88;2030425;29;20083;-77
2022/08/02 14:35:36;;;;;;;0.00;0.00;;;27.20;54.00;;;28.91;44.90;101539.66;2022025;29;20064;-77
2022/08/02 14:36:52;;;;;;;0.10;0.10;;;27.30;53.70;;;28.90;45.29;101521.44;2028263;29;20092;-77
2022/08/02 14:38:18;;;;;;;0.10;0.10;;;27.30;53.40;;;28.94;45.02;101524.06;2031767;29;20056;-77
2022/08/02 14:39:21;;;;;;;0.10;0.10;;;27.40;53.50;;;28.98;45.19;101508.06;2028885;29;20111;-78
2022/08/02 14:40:26;;;;;;;0.10;0.10;;;27.40;53.40;;;29.02;44.96;101508.69;2030644;29;20056;-77
2022/08/02 14:41:35;;;;;;;0.08;0.08;;;27.50;53.20;;;29.04;44.38;101503.47;2025648;29;20460;-79
2022/08/02 14:42:59;;;;;;;0.10;0.10;;;27.50;53.10;;;29.14;44.38;101514.22;2023719;29;20505;-77
2022/08/02 14:44:03;;;;;;;0.00;0.00;;;27.60;53.00;;;29.17;44.34;101515.34;2022073;29;20143;-75
2022/08/02 14:45:08;;;;;;;0.10;0.10;;;27.60;52.70;;;29.19;44.48;101512.91;2027178;29;20544;-78
2022/08/02 14:46:11;;;;;;;0.10;0.10;;;27.70;52.50;;;29.17;44.54;101512.56;2027053;29;20060;-77
2022/08/02 14:47:14;;;;;;;0.03;0.03;;;27.70;52.20;;;29.17;44.80;101521.69;2032808;29;20128;-77
2022/08/02 14:48:17;;;;;;;0.05;0.05;;;27.80;52.40;;;29.22;44.39;101523.13;2031094;29;20138;-76
2022/08/02 14:49:20;;;;;;;0.00;0.00;;;27.80;52.10;;;29.26;44.35;101507.06;2027923;29;20148;-76
2022/08/02 14:50:29;;;;;;;0.05;0.05;;;27.80;52.00;;;29.29;43.85;101522.84;2010150;29;20117;-77
2022/08/02 14:51:32;;;;;;;0.10;0.10;;;27.80;51.50;;;29.23;43.31;101514.31;2025069;29;20099;-77
2022/08/02 14:52:35;;;;;;;0.08;0.08;;;27.80;51.20;;;29.22;43.45;101518.31;2029755;29;20183;-77
2022/08/02 14:53:38;;;;;;;0.00;0.00;;;27.80;51.10;;;29.21;43.58;101511.22;2028452;29;20056;-77
2022/08/02 14:54:52;;;;;;;0.00;0.00;;;27.80;51.30;;;29.21;43.24;101518.78;2022129;29;20057;-77
2022/08/02 14:55:54;;;;;;;0.03;0.03;;;27.70;50.90;;;29.15;43.71;101513.03;2019205;29;20160;-78
2022/08/02 14:56:59;;;;;;;0.10;0.10;;;27.70;50.90;;;29.14;43.68;101507.91;2022310;29;20500;-77
2022/08/02 14:58:02;;;;;;;0.10;0.10;;;27.70;51.40;;;29.14;44.11;101505.13;2027064;29;20185;-77
2022/08/02 14:59:07;;;;;;;0.10;0.10;;;27.70;51.70;;;29.20;44.26;101508.88;2030175;29;20131;-77
2022/08/02 15:00:16;;;;;;;0.00;0.00;;;27.80;51.80;;;29.23;43.97;101508.75;2015853;29;20064;-76
2022/08/02 15:01:18;;;;;;;0.00;0.00;;;27.80;51.60;;;29.26;43.73;101495.94;2024921;29;20440;-78
2022/08/02 15:02:28;;;;;;;0.03;0.03;;;27.90;51.40;;;29.34;44.00;101508.38;2036318;29;20055;-79
2022/08/02 15:03:31;;;;;;;0.10;0.10;;;28.00;51.20;;;29.34;43.18;101494.44;2027558;29;20484;-77
2022/08/02 15:04:45;;;;;;;0.00;0.00;;;28.00;50.60;;;29.35;43.25;101498.03;2026246;29;20060;-78
2022/08/02 15:05:48;;;;;;;0.00;0.00;;;28.00;50.50;;;29.32;43.17;101488.56;2024699;29;20052;-78
2022/08/02 15:06:52;;;;;;;0.05;0.05;;;28.00;50.40;;;29.25;43.57;101477.69;2027954;29;20484;-77
2022/08/02 15:07:55;;;;;;;0.10;0.10;;;28.00;50.40;;;29.19;43.25;101493.44;2032542;29;20067;-77
2022/08/02 15:08:58;;;;;;;0.00;0.00;;;27.90;49.70;;;29.12;43.26;101493.66;2023269;29;20060;-79
2022/08/02 15:10:02;;;;;;;0.00;0.00;;;27.90;49.90;;;29.08;42.62;101496.56;2023081;29;20060;-76
2022/08/02 15:11:04;;;;;;;0.10;0.10;;;27.80;49.50;;;29.03;42.82;101499.91;2024692;29;20096;-77
2022/08/02 15:12:10;;;;;;;0.10;0.10;;;27.80;49.60;;;29.01;43.10;101496.03;2022327;29;20109;-78
2022/08/02 15:13:12;;;;;;;0.10;0.10;;;27.80;49.60;;;29.01;42.69;101491.25;2023419;29;20092;-77
2022/08/02 15:14:18;;;;;;;0.00;0.00;;;27.80;49.70;;;29.00;42.80;101498.03;2031169;29;20427;-77
2022/08/02 15:15:27;;;;;;;0.10;0.10;;;27.80;49.40;;;28.99;42.88;101495.69;2029254;29;20119;-77
2022/08/02 15:16:34;;;;;;;0.10;0.10;;;27.80;49.50;;;28.98;42.80;101496.94;2015496;29;20432;-77
2022/08/02 15:17:58;;;;;;;0.10;0.10;;;27.70;49.40;;;29.01;42.67;101490.47;2015103;29;20103;-76
2022/08/02 15:19:02;;;;;;;0.10;0.10;;;27.70;49.50;;;28.97;42.48;101489.81;2039498;29;20088;-77
2022/08/02 15:20:09;;;;;;;0.10;0.10;;;27.70;49.20;;;28.89;42.92;101480.19;2037349;29;20070;-77
2022/08/02 15:21:28;;;;;;;0.10;0.10;;;27.70;50.20;;;28.90;43.31;101490.06;2024887;29;20444;-77
2022/08/02 15:22:44;;;;;;;0.10;0.10;;;27.60;49.80;;;28.87;43.16;101486.19;2025969;29;20131;-78
2022/08/02 15:23:50;;;;;;;0.10;0.10;;;27.60;50.00;;;28.84;43.28;101489.09;2036612;29;20055;-77
2022/08/02 15:24:55;;;;;;;0.10;0.10;;;27.60;50.10;;;28.80;43.45;101480.06;2036731;29;20629;-77
2022/08/02 15:25:58;;;;;;;0.10;0.10;;;27.60;50.20;;;28.79;43.28;101489.66;2035661;29;20055;-77
2022/08/02 15:27:01;;;;;;;0.10;0.10;;;27.60;50.10;;;28.77;43.78;101486.53;2034750;29;20090;-77
2022/08/02 15:28:05;;;;;;;0.10;0.10;;;27.60;50.30;;;28.77;43.48;101480.97;2037762;29;20503;-77
2022/08/02 15:29:09;;;;;;;0.10;0.10;;;27.60;50.20;;;28.77;43.63;101480.97;2034778;29;20127;-77
2022/08/02 15:30:16;;;;;;;0.10;0.10;;;27.60;50.10;;;28.78;43.52;101494.44;2024994;29;20551;-78
2022/08/02 15:31:20;;;;;;;0.10;0.10;;;27.70;50.10;;;28.80;42.72;101491.19;2024823;29;20143;-78
2022/08/02 15:32:35;;;;;;;0.10;0.10;;;27.70;49.70;;;28.79;42.72;101490.44;2027312;29;20059;-77
2022/08/02 15:33:38;;;;;;;0.10;0.10;;;27.60;49.20;;;28.72;42.56;101495.44;2029102;29;20083;-77